createdAt,value
2022-09-06T00:00:13.003Z,51.23
2022-09-06T00:01:12.987Z,51.51
2022-09-06T00:02:13.161Z,51.04
2022-09-06T00:03:12.993Z,51.51
2022-09-06T00:04:15.457Z,52.09
2022-09-06T00:05:12.994Z,51.32
2022-09-06T00:06:12.994Z,51.23
2022-09-06T00:07:12.986Z,51.51
2022-09-06T00:08:12.987Z,51.51
2022-09-06T00:09:12.991Z,52.00
2022-09-06T00:10:12.997Z,51.23
2022-09-06T00:11:13.010Z,51.40
2022-09-06T00:12:12.991Z,51.32
2022-09-06T00:13:12.990Z,51.51
2022-09-06T00:14:12.987Z,51.42
2022-09-06T00:15:12.983Z,51.32
2022-09-06T00:16:13.038Z,51.30
2022-09-06T00:17:12.977Z,51.49
2022-09-06T00:18:12.990Z,52.07
2022-09-06T00:19:12.984Z,51.30
2022-09-06T00:20:12.984Z,52.07
2022-09-06T00:21:12.986Z,51.68
2022-09-06T00:22:12.981Z,51.97
2022-09-06T00:23:12.992Z,51.23
2022-09-06T00:24:12.982Z,51.51
2022-09-06T00:25:12.979Z,51.42
2022-09-06T00:26:12.997Z,51.40
2022-09-06T00:27:12.995Z,51.49
2022-09-06T00:28:13.010Z,51.30
2022-09-06T00:29:12.984Z,51.49
2022-09-06T00:30:12.983Z,51.40
2022-09-06T00:31:13.047Z,51.59
2022-09-06T00:32:12.984Z,51.20
2022-09-06T00:33:12.971Z,51.30
2022-09-06T00:34:12.978Z,51.49
2022-09-06T00:35:12.984Z,51.97
2022-09-06T00:36:12.983Z,51.30
2022-09-06T00:37:12.983Z,51.49
2022-09-06T00:38:12.979Z,51.49
2022-09-06T00:39:12.986Z,51.30
2022-09-06T00:40:12.998Z,51.59
2022-09-06T00:41:12.987Z,51.49
2022-09-06T00:42:12.977Z,51.30
2022-09-06T00:43:12.997Z,51.30
2022-09-06T00:44:12.988Z,51.20
2022-09-06T00:45:12.969Z,51.30
2022-09-06T00:46:13.006Z,51.40
2022-09-06T00:47:12.975Z,52.07
2022-09-06T00:48:12.965Z,52.07
2022-09-06T00:49:12.974Z,51.97
2022-09-06T00:50:12.974Z,51.78
2022-09-06T00:51:12.972Z,52.07
2022-09-06T00:52:12.976Z,51.49
2022-09-06T00:53:12.974Z,52.16
2022-09-06T00:54:12.981Z,52.07
2022-09-06T00:55:12.981Z,51.97
2022-09-06T00:56:12.967Z,51.97
2022-09-06T00:57:12.965Z,52.16
2022-09-06T00:58:12.963Z,51.40
2022-09-06T00:59:12.965Z,51.49
2022-09-06T01:00:12.964Z,51.30
2022-09-06T01:01:13.069Z,51.87
2022-09-06T01:02:13.106Z,52.07
2022-09-06T01:03:12.970Z,52.07
2022-09-06T01:04:12.980Z,51.97
2022-09-06T01:05:12.960Z,52.36
2022-09-06T01:06:12.983Z,52.45
2022-09-06T01:07:12.963Z,52.45
2022-09-06T01:08:12.979Z,52.07
2022-09-06T01:09:12.976Z,52.07
2022-09-06T01:10:12.957Z,51.97
2022-09-06T01:11:12.959Z,52.23
2022-09-06T01:12:12.955Z,52.04
2022-09-06T01:13:12.956Z,51.85
2022-09-06T01:14:12.951Z,52.33
2022-09-06T01:15:12.949Z,52.14
2022-09-06T01:16:13.011Z,52.14
2022-09-06T01:17:12.962Z,52.42
2022-09-06T01:18:12.951Z,52.23
2022-09-06T01:19:12.951Z,51.95
2022-09-06T01:20:12.952Z,52.14
2022-09-06T01:21:12.968Z,51.95
2022-09-06T01:22:12.943Z,51.95
2022-09-06T01:23:12.947Z,52.23
2022-09-06T01:24:12.949Z,52.33
2022-09-06T01:25:12.939Z,52.23
2022-09-06T01:26:12.946Z,52.04
2022-09-06T01:27:12.953Z,52.62
2022-09-06T01:28:12.943Z,52.23
2022-09-06T01:29:12.937Z,52.42
2022-09-06T01:30:12.945Z,52.42
2022-09-06T01:31:13.018Z,52.23
2022-09-06T01:32:12.947Z,52.33
2022-09-06T01:33:12.940Z,51.95
2022-09-06T01:34:12.940Z,52.23
2022-09-06T01:35:12.941Z,52.23
2022-09-06T01:36:12.931Z,52.33
2022-09-06T01:37:12.933Z,52.42
2022-09-06T01:38:12.939Z,52.42
2022-09-06T01:39:12.931Z,52.62
2022-09-06T01:40:12.935Z,52.42
2022-09-06T01:41:12.929Z,52.52
2022-09-06T01:42:12.935Z,52.23
2022-09-06T01:43:12.938Z,52.52
2022-09-06T01:44:12.940Z,52.52
2022-09-06T01:45:12.932Z,52.23
2022-09-06T01:46:12.985Z,52.40
2022-09-06T01:47:12.929Z,52.52
2022-09-06T01:48:12.943Z,52.50
2022-09-06T01:49:12.927Z,52.62
2022-09-06T01:50:12.935Z,53.07
2022-09-06T01:51:12.917Z,52.78
2022-09-06T01:52:12.922Z,52.59
2022-09-06T01:53:12.923Z,53.07
2022-09-06T01:54:12.931Z,53.07
2022-09-06T01:55:12.916Z,53.19
2022-09-06T01:56:12.919Z,53.07
2022-09-06T01:57:12.927Z,52.78
2022-09-06T01:58:12.944Z,53.07
2022-09-06T01:59:12.931Z,53.07
2022-09-06T02:00:12.937Z,52.87
2022-09-06T02:01:12.984Z,52.87
2022-09-06T02:02:12.979Z,52.97
2022-09-06T02:03:12.905Z,53.67
2022-09-06T02:04:12.907Z,53.07
2022-09-06T02:05:12.912Z,53.19
2022-09-06T02:06:12.936Z,52.97
2022-09-06T02:07:12.911Z,53.07
2022-09-06T02:08:12.906Z,53.16
2022-09-06T02:09:12.912Z,53.26
2022-09-06T02:10:12.915Z,53.07
2022-09-06T02:11:12.903Z,53.19
2022-09-06T02:12:12.908Z,53.28
2022-09-06T02:13:12.919Z,53.26
2022-09-06T02:14:12.897Z,53.26
2022-09-06T02:15:12.922Z,53.28
2022-09-06T02:16:12.896Z,53.19
2022-09-06T02:17:12.902Z,52.91
2022-09-06T02:18:12.920Z,52.59
2022-09-06T02:19:12.904Z,53.16
2022-09-06T02:20:12.910Z,53.48
2022-09-06T02:21:12.902Z,53.67
2022-09-06T02:22:12.906Z,53.45
2022-09-06T02:23:12.895Z,53.45
2022-09-06T02:24:12.929Z,53.36
2022-09-06T02:25:12.924Z,53.55
2022-09-06T02:26:12.921Z,53.38
2022-09-06T02:27:12.911Z,53.07
2022-09-06T02:28:12.888Z,53.16
2022-09-06T02:29:12.884Z,53.26
2022-09-06T02:30:12.885Z,53.36
2022-09-06T02:31:12.952Z,53.36
2022-09-06T02:32:12.886Z,53.16
2022-09-06T02:33:12.884Z,53.64
2022-09-06T02:34:12.889Z,53.83
2022-09-06T02:35:12.894Z,53.64
2022-09-06T02:36:12.884Z,53.64
2022-09-06T02:37:12.889Z,53.93
2022-09-06T02:38:12.895Z,53.93
2022-09-06T02:39:12.883Z,53.83
2022-09-06T02:40:12.960Z,54.22
2022-09-06T02:41:12.954Z,53.93
2022-09-06T02:42:12.885Z,54.22
2022-09-06T02:43:12.877Z,54.22
2022-09-06T02:44:12.867Z,54.79
2022-09-06T02:45:12.879Z,54.70
2022-09-06T02:46:12.970Z,54.70
2022-09-06T02:47:12.863Z,54.79
2022-09-06T02:48:12.875Z,54.70
2022-09-06T02:49:12.896Z,54.70
2022-09-06T02:50:12.895Z,54.60
2022-09-06T02:51:12.879Z,54.70
2022-09-06T02:52:12.875Z,55.18
2022-09-06T02:53:12.871Z,54.60
2022-09-06T02:54:12.859Z,54.99
2022-09-06T02:55:12.872Z,54.89
2022-09-06T02:56:12.861Z,55.18
2022-09-06T02:57:12.855Z,55.27
2022-09-06T02:58:12.853Z,55.08
2022-09-06T02:59:12.859Z,55.18
2022-09-06T03:00:12.862Z,55.75
2022-09-06T03:01:12.919Z,55.46
2022-09-06T03:02:12.928Z,55.75
2022-09-06T03:03:12.866Z,55.75
2022-09-06T03:04:12.894Z,55.94
2022-09-06T03:05:12.857Z,55.75
2022-09-06T03:06:12.848Z,55.94
2022-09-06T03:07:12.842Z,55.94
2022-09-06T03:08:12.842Z,56.23
2022-09-06T03:09:12.843Z,56.23
2022-09-06T03:10:12.862Z,56.32
2022-09-06T03:11:12.843Z,56.52
2022-09-06T03:12:12.850Z,56.61
2022-09-06T03:13:12.838Z,56.42
2022-09-06T03:14:12.845Z,56.42
2022-09-06T03:15:12.845Z,56.30
2022-09-06T03:16:12.884Z,56.81
2022-09-06T03:17:12.839Z,56.68
2022-09-06T03:18:12.829Z,56.87
2022-09-06T03:19:12.827Z,57.16
2022-09-06T03:20:12.829Z,56.97
2022-09-06T03:21:12.836Z,57.16
2022-09-06T03:22:12.823Z,57.38
2022-09-06T03:23:12.827Z,57.45
2022-09-06T03:24:12.830Z,57.48
2022-09-06T03:25:12.839Z,57.67
2022-09-06T03:26:12.825Z,56.99
2022-09-06T03:27:12.830Z,57.67
2022-09-06T03:28:12.832Z,57.73
2022-09-06T03:29:12.826Z,57.28
2022-09-06T03:30:12.844Z,57.64
2022-09-06T03:31:12.863Z,57.73
2022-09-06T03:32:12.828Z,58.02
2022-09-06T03:33:12.823Z,58.31
2022-09-06T03:34:12.816Z,58.40
2022-09-06T03:35:12.813Z,58.40
2022-09-06T03:36:12.815Z,58.31
2022-09-06T03:37:12.817Z,58.22
2022-09-06T03:38:12.810Z,58.12
2022-09-06T03:39:12.810Z,58.31
2022-09-06T03:40:12.811Z,58.02
2022-09-06T03:41:12.835Z,58.31
2022-09-06T03:42:12.807Z,58.31
2022-09-06T03:43:12.821Z,58.31
2022-09-06T03:44:12.810Z,58.40
2022-09-06T03:45:12.805Z,58.59
2022-09-06T03:46:12.883Z,58.98
2022-09-06T03:47:13.548Z,58.79
2022-09-06T03:48:12.797Z,58.79
2022-09-06T03:49:12.818Z,58.79
2022-09-06T03:50:12.796Z,59.27
2022-09-06T03:51:12.815Z,59.65
2022-09-06T03:52:12.818Z,59.65
2022-09-06T03:53:12.791Z,59.55
2022-09-06T03:54:12.813Z,59.65
2022-09-06T03:55:12.784Z,59.55
2022-09-06T03:56:12.811Z,59.65
2022-09-06T03:57:12.788Z,59.65
2022-09-06T03:58:12.795Z,59.36
2022-09-06T03:59:12.787Z,59.36
2022-09-06T04:00:12.783Z,59.45
2022-09-06T04:01:12.811Z,59.65
2022-09-06T04:02:12.821Z,59.75
2022-09-06T04:03:12.793Z,60.41
2022-09-06T04:04:12.800Z,59.75
2022-09-06T04:05:12.787Z,59.75
2022-09-06T04:06:12.778Z,59.94
2022-09-06T04:07:12.804Z,60.41
2022-09-06T04:08:12.784Z,60.41
2022-09-06T04:09:12.800Z,60.41
2022-09-06T04:10:12.772Z,60.13
2022-09-06T04:11:12.778Z,60.41
2022-09-06T04:12:12.787Z,60.03
2022-09-06T04:13:12.756Z,60.22
2022-09-06T04:14:12.764Z,60.61
2022-09-06T04:15:12.759Z,60.61
2022-09-06T04:16:12.842Z,60.41
2022-09-06T04:17:12.754Z,60.99
2022-09-06T04:18:12.752Z,60.70
2022-09-06T04:19:12.756Z,60.51
2022-09-06T04:20:12.746Z,60.89
2022-09-06T04:21:12.746Z,61.05
2022-09-06T04:22:12.750Z,61.28
2022-09-06T04:23:12.743Z,61.47
2022-09-06T04:24:12.742Z,61.18
2022-09-06T04:25:12.755Z,61.08
2022-09-06T04:26:12.744Z,61.08
2022-09-06T04:27:12.758Z,61.18
2022-09-06T04:28:12.753Z,61.18
2022-09-06T04:29:12.740Z,61.66
2022-09-06T04:30:12.733Z,61.18
2022-09-06T04:31:12.745Z,61.37
2022-09-06T04:32:12.825Z,61.18
2022-09-06T04:33:12.724Z,61.66
2022-09-06T04:34:12.731Z,61.18
2022-09-06T04:35:12.725Z,61.18
2022-09-06T04:36:12.727Z,61.18
2022-09-06T04:37:12.738Z,61.66
2022-09-06T04:38:12.723Z,61.54
2022-09-06T04:39:12.718Z,61.85
2022-09-06T04:40:12.723Z,61.66
2022-09-06T04:41:12.719Z,61.66
2022-09-06T04:42:12.721Z,61.57
2022-09-06T04:43:12.727Z,61.47
2022-09-06T04:44:12.717Z,62.04
2022-09-06T04:45:12.716Z,61.76
2022-09-06T04:46:12.797Z,61.76
2022-09-06T04:47:12.710Z,61.85
2022-09-06T04:48:12.712Z,61.94
2022-09-06T04:49:12.706Z,61.63
2022-09-06T04:50:12.706Z,62.04
2022-09-06T04:51:12.712Z,62.33
2022-09-06T04:52:12.779Z,62.23
2022-09-06T04:53:12.724Z,62.33
2022-09-06T04:54:12.702Z,62.04
2022-09-06T04:55:12.720Z,62.40
2022-09-06T04:56:12.696Z,62.49
2022-09-06T04:57:12.700Z,62.43
2022-09-06T04:58:12.698Z,62.59
2022-09-06T04:59:12.694Z,62.49
2022-09-06T05:00:12.696Z,62.97
2022-09-06T05:01:12.717Z,62.97
2022-09-06T05:02:12.779Z,62.43
2022-09-06T05:03:12.695Z,62.62
2022-09-06T05:04:12.694Z,62.97
2022-09-06T05:05:12.707Z,62.71
2022-09-06T05:06:12.686Z,63.35
2022-09-06T05:07:12.686Z,63.39
2022-09-06T05:08:12.682Z,63.39
2022-09-06T05:09:12.681Z,63.00
2022-09-06T05:10:12.679Z,63.00
2022-09-06T05:11:12.674Z,63.10
2022-09-06T05:12:12.677Z,62.62
2022-09-06T05:13:12.677Z,62.59
2022-09-06T05:14:12.689Z,62.90
2022-09-06T05:15:12.725Z,62.62
2022-09-06T05:16:12.736Z,62.68
2022-09-06T05:17:12.669Z,62.87
2022-09-06T05:18:16.064Z,62.68
2022-09-06T05:19:12.682Z,62.77
2022-09-06T05:20:12.658Z,63.64
2022-09-06T05:21:12.659Z,63.06
2022-09-06T05:22:12.660Z,63.35
2022-09-06T05:23:12.655Z,63.35
2022-09-06T05:24:12.679Z,63.35
2022-09-06T05:25:12.666Z,63.10
2022-09-06T05:26:12.670Z,63.16
2022-09-06T05:27:12.681Z,63.10
2022-09-06T05:28:12.656Z,62.71
2022-09-06T05:29:12.661Z,62.71
2022-09-06T05:30:12.649Z,63.19
2022-09-06T05:31:12.739Z,63.29
2022-09-06T05:32:12.668Z,63.10
2022-09-06T05:33:12.661Z,63.10
2022-09-06T05:34:12.646Z,63.29
2022-09-06T05:35:12.640Z,63.57
2022-09-06T05:36:12.648Z,63.00
2022-09-06T05:37:12.644Z,63.00
2022-09-06T05:38:12.645Z,64.92
2022-09-06T05:39:12.641Z,67.60
2022-09-06T05:40:12.703Z,67.50
2022-09-06T05:41:12.642Z,66.06
2022-09-06T05:42:17.178Z,65.88
2022-09-06T05:43:12.645Z,67.05
2022-09-06T05:44:12.642Z,65.81
2022-09-06T05:45:12.653Z,63.51
2022-09-06T05:46:12.692Z,62.65
2022-09-06T05:47:12.628Z,62.93
2022-09-06T05:48:12.649Z,62.65
2022-09-06T05:49:12.637Z,62.36
2022-09-06T05:50:12.621Z,62.84
2022-09-06T05:51:12.731Z,62.74
2022-09-06T05:52:12.623Z,63.13
2022-09-06T05:53:12.624Z,62.74
2022-09-06T05:54:12.625Z,62.26
2022-09-06T05:55:12.619Z,62.46
2022-09-06T05:56:12.629Z,62.36
2022-09-06T05:57:12.653Z,62.26
2022-09-06T05:58:12.629Z,62.17
2022-09-06T05:59:12.616Z,62.55
2022-09-06T06:00:12.614Z,62.55
2022-09-06T06:01:12.690Z,63.51
2022-09-06T06:02:12.695Z,63.13
2022-09-06T06:03:12.611Z,62.46
2022-09-06T06:04:12.609Z,61.98
2022-09-06T06:05:12.635Z,62.74
2022-09-06T06:06:12.611Z,62.07
2022-09-06T06:07:12.629Z,61.79
2022-09-06T06:08:12.718Z,62.26
2022-09-06T06:09:12.628Z,62.46
2022-09-06T06:10:12.609Z,61.60
2022-09-06T06:11:12.613Z,61.79
2022-09-06T06:12:12.615Z,61.88
2022-09-06T06:13:12.627Z,62.07
2022-09-06T06:14:12.613Z,62.07
2022-09-06T06:15:12.653Z,62.07
2022-09-06T06:16:12.711Z,62.17
2022-09-06T06:17:12.604Z,62.17
2022-09-06T06:18:12.611Z,62.17
2022-09-06T06:19:12.607Z,61.88
2022-09-06T06:20:12.602Z,62.07
2022-09-06T06:21:12.603Z,62.07
2022-09-06T06:22:12.598Z,62.07
2022-09-06T06:23:12.608Z,61.88
2022-09-06T06:24:12.602Z,62.17
2022-09-06T06:25:12.766Z,62.46
2022-09-06T06:26:12.606Z,61.88
2022-09-06T06:27:12.604Z,61.69
2022-09-06T06:28:12.615Z,61.21
2022-09-06T06:29:12.626Z,61.21
2022-09-06T06:30:17.780Z,61.50
2022-09-06T06:31:12.643Z,61.11
2022-09-06T06:32:12.596Z,61.21
2022-09-06T06:33:12.627Z,61.15
2022-09-06T06:34:12.598Z,61.24
2022-09-06T06:35:12.603Z,60.96
2022-09-06T06:36:12.627Z,60.38
2022-09-06T06:37:12.609Z,60.60
2022-09-06T06:38:12.607Z,60.12
2022-09-06T06:39:12.609Z,59.64
2022-09-06T06:40:12.655Z,59.55
2022-09-06T06:41:12.632Z,58.59
2022-09-06T06:42:12.614Z,58.49
2022-09-06T06:43:12.644Z,58.69
2022-09-06T06:44:12.646Z,58.49
2022-09-06T06:45:12.628Z,58.78
2022-09-06T06:46:12.697Z,58.87
2022-09-06T06:47:12.643Z,59.16
2022-09-06T06:48:12.644Z,59.74
2022-09-06T06:49:12.649Z,59.74
2022-09-06T06:50:12.661Z,59.45
2022-09-06T06:51:12.646Z,59.83
2022-09-06T06:52:12.663Z,59.83
2022-09-06T06:53:12.661Z,59.93
2022-09-06T06:54:12.668Z,59.96
2022-09-06T06:55:12.679Z,58.91
2022-09-06T06:56:12.699Z,58.42
2022-09-06T06:57:12.701Z,57.75
2022-09-06T06:58:12.690Z,57.46
2022-09-06T06:59:12.685Z,57.95
2022-09-06T07:00:12.695Z,57.65
2022-09-06T07:01:12.853Z,58.07
2022-09-06T07:02:12.841Z,57.88
2022-09-06T07:03:12.723Z,57.40
2022-09-06T07:04:12.728Z,56.92
2022-09-06T07:06:13.149Z,56.24
2022-09-06T07:08:12.777Z,56.27
2022-09-06T07:09:12.795Z,55.89
2022-09-06T07:11:12.782Z,55.15
2022-09-06T07:12:12.799Z,54.67
2022-09-06T07:13:12.796Z,54.57
2022-09-06T07:14:12.815Z,53.80
2022-09-06T07:15:12.853Z,53.90
2022-09-06T07:16:12.850Z,53.52
2022-09-06T07:17:12.852Z,53.74
2022-09-06T07:18:12.845Z,53.92
2022-09-06T07:20:13.617Z,54.12
2022-09-06T07:22:13.784Z,53.47
2022-09-06T07:24:12.977Z,52.99
2022-09-06T07:25:14.474Z,53.09
2022-09-06T07:26:12.975Z,52.54
2022-09-06T07:28:13.007Z,52.34
2022-09-06T07:29:13.001Z,51.38
2022-09-06T07:30:13.006Z,51.67
2022-09-06T07:32:13.125Z,51.09
2022-09-06T07:33:13.032Z,51.57
2022-09-06T07:34:13.036Z,52.34
2022-09-06T07:35:13.048Z,52.06
2022-09-06T07:36:13.045Z,52.06
2022-09-06T07:37:13.047Z,52.73
2022-09-06T07:38:13.060Z,52.63
2022-09-06T07:39:13.064Z,52.66
2022-09-06T07:40:13.162Z,51.60
2022-09-06T07:41:13.092Z,51.60
2022-09-06T07:42:13.096Z,51.79
2022-09-06T07:43:13.111Z,50.93
2022-09-06T07:44:13.141Z,51.05
2022-09-06T07:45:13.136Z,51.72
2022-09-06T07:46:13.290Z,51.14
2022-09-06T07:48:13.193Z,50.76
2022-09-06T07:49:13.174Z,50.57
2022-09-06T07:51:13.209Z,49.99
2022-09-06T07:53:16.597Z,50.57
2022-09-06T07:54:30.044Z,50.57
2022-09-06T07:55:13.257Z,50.95
2022-09-06T07:56:13.268Z,50.66
2022-09-06T07:57:13.274Z,51.72
2022-09-06T07:58:13.281Z,51.43
2022-09-06T07:59:13.299Z,51.53
2022-09-06T08:00:13.300Z,51.53
2022-09-06T08:01:13.349Z,51.62
2022-09-06T08:02:13.411Z,51.34
2022-09-06T08:03:13.368Z,51.53
2022-09-06T08:04:13.349Z,51.31
2022-09-06T08:06:13.371Z,51.98
2022-09-06T08:07:43.042Z,52.44
2022-09-06T08:09:13.392Z,52.92
2022-09-06T08:10:14.853Z,53.40
2022-09-06T08:11:13.406Z,53.78
2022-09-06T08:12:13.411Z,53.31
2022-09-06T08:13:13.431Z,53.88
2022-09-06T08:14:13.434Z,53.31
2022-09-06T08:15:13.443Z,53.50
2022-09-06T08:16:13.514Z,54.08
2022-09-06T08:17:13.453Z,53.50
2022-09-06T08:18:13.491Z,53.40
2022-09-06T08:19:13.467Z,53.59
2022-09-06T08:21:13.557Z,53.86
2022-09-06T08:22:14.154Z,54.43
2022-09-06T08:23:13.542Z,55.20
2022-09-06T08:24:13.551Z,55.59
2022-09-06T08:25:13.566Z,55.59
2022-09-06T08:26:13.564Z,55.33
2022-09-06T08:27:14.593Z,55.59
2022-09-06T08:28:13.587Z,55.68
2022-09-06T08:29:13.613Z,55.52
2022-09-06T08:30:13.591Z,55.01
2022-09-06T08:31:13.668Z,55.11
2022-09-06T08:32:13.617Z,55.11
2022-09-06T08:33:14.627Z,55.49
2022-09-06T08:34:13.660Z,56.38
2022-09-06T08:35:13.610Z,56.10
2022-09-06T08:36:13.639Z,55.43
2022-09-06T08:37:13.619Z,54.85
2022-09-06T08:38:13.652Z,54.94
2022-09-06T08:39:14.666Z,55.23
2022-09-06T08:40:13.731Z,55.43
2022-09-06T08:41:13.675Z,56.38
2022-09-06T08:42:13.674Z,56.20
2022-09-06T08:43:13.639Z,55.81
2022-09-06T08:45:14.690Z,55.23
2022-09-06T08:46:13.726Z,55.04
2022-09-06T08:47:13.687Z,55.13
2022-09-06T08:48:13.697Z,54.85
2022-09-06T08:49:13.690Z,54.65
2022-09-06T08:50:13.704Z,54.27
2022-09-06T08:51:14.720Z,55.23
2022-09-06T08:52:13.691Z,55.43
2022-09-06T08:53:17.313Z,55.33
2022-09-06T08:54:13.711Z,54.75
2022-09-06T08:55:15.117Z,54.94
2022-09-06T08:56:13.737Z,55.23
2022-09-06T08:57:14.727Z,55.43
2022-09-06T08:58:13.748Z,55.43
2022-09-06T08:59:13.751Z,55.23
2022-09-06T09:00:13.728Z,55.52
2022-09-06T09:01:13.751Z,55.13
2022-09-06T09:02:13.769Z,55.71
2022-09-06T09:03:16.977Z,55.43
2022-09-06T09:04:13.761Z,55.43
2022-09-06T09:05:13.750Z,55.43
2022-09-06T09:06:15.229Z,55.62
2022-09-06T09:07:13.734Z,55.62
2022-09-06T09:08:13.752Z,55.33
2022-09-06T09:09:14.764Z,54.75
2022-09-06T09:10:13.752Z,55.52
2022-09-06T09:11:13.774Z,55.81
2022-09-06T09:12:13.818Z,56.77
2022-09-06T09:13:13.797Z,57.35
2022-09-06T09:14:13.771Z,57.35
2022-09-06T09:15:14.790Z,56.58
2022-09-06T09:16:13.825Z,57.06
2022-09-06T09:17:13.773Z,56.80
2022-09-06T09:18:13.786Z,57.18
2022-09-06T09:19:13.794Z,56.70
2022-09-06T09:20:13.819Z,56.41
2022-09-06T09:21:14.815Z,56.22
2022-09-06T09:22:13.806Z,56.70
2022-09-06T09:23:13.822Z,55.23
2022-09-06T09:24:13.816Z,56.32
2022-09-06T09:25:13.809Z,55.83
2022-09-06T09:26:13.816Z,56.03
2022-09-06T09:27:14.840Z,55.93
2022-09-06T09:28:13.819Z,56.96
2022-09-06T09:29:13.840Z,57.25
2022-09-06T09:31:13.845Z,56.32
2022-09-06T09:32:13.828Z,56.51
2022-09-06T09:33:14.870Z,56.60
2022-09-06T09:34:13.857Z,56.41
2022-09-06T09:35:13.847Z,56.32
2022-09-06T09:36:13.840Z,56.41
2022-09-06T09:38:13.865Z,56.03
2022-09-06T09:39:16.233Z,56.03
2022-09-06T09:40:13.860Z,56.41
2022-09-06T09:41:13.864Z,55.93
2022-09-06T09:42:13.870Z,56.22
2022-09-06T09:43:13.873Z,56.22
2022-09-06T09:44:13.893Z,56.41
2022-09-06T09:45:14.937Z,56.41
2022-09-06T09:46:13.968Z,56.12
2022-09-06T09:47:13.916Z,56.03
2022-09-06T09:48:13.880Z,56.03
2022-09-06T09:49:13.881Z,56.20
2022-09-06T09:50:16.319Z,56.20
2022-09-06T09:51:22.611Z,56.77
2022-09-06T09:52:13.943Z,57.15
2022-09-06T09:53:13.912Z,57.06
2022-09-06T09:54:13.908Z,56.96
2022-09-06T09:55:13.903Z,57.25
2022-09-06T09:57:54.299Z,57.25
2022-09-06T09:58:52.308Z,57.73
2022-09-06T09:59:58.329Z,57.15
2022-09-06T10:00:50.375Z,57.54
2022-09-06T10:01:43.298Z,57.45
2022-09-06T10:03:16.737Z,56.96
2022-09-06T10:04:46.277Z,57.25
2022-09-06T10:07:20.620Z,56.48
2022-09-06T10:09:24.622Z,57.15
2022-09-06T10:10:24.621Z,57.15
2022-09-06T10:12:28.728Z,57.35
2022-09-06T10:13:28.700Z,57.35
2022-09-06T10:15:32.693Z,57.54
2022-09-06T10:16:32.783Z,57.45
2022-09-06T10:18:36.735Z,57.45
2022-09-06T10:19:36.686Z,57.73
2022-09-06T10:21:40.739Z,57.54
2022-09-06T10:22:40.674Z,57.25
2022-09-06T10:24:34.245Z,57.35
2022-09-06T10:25:33.830Z,57.54
2022-09-06T10:27:45.734Z,57.45
2022-09-06T10:28:37.835Z,57.35
2022-09-06T10:30:41.826Z,58.02
2022-09-06T10:31:41.885Z,57.35
2022-09-06T10:33:45.852Z,57.25
2022-09-06T10:34:45.839Z,56.96
2022-09-06T10:36:49.841Z,57.35
2022-09-06T10:37:49.832Z,57.64
2022-09-06T10:39:53.921Z,57.35
2022-09-06T10:40:53.825Z,57.45
2022-09-06T10:42:57.923Z,56.96
2022-09-06T10:43:57.842Z,57.06
2022-09-06T10:46:01.926Z,57.45
2022-09-06T10:47:01.864Z,57.45
2022-09-06T10:49:06.445Z,57.35
2022-09-06T10:50:06.045Z,56.77
2022-09-06T10:52:10.062Z,56.58
2022-09-06T10:53:10.077Z,56.67
2022-09-06T10:55:02.977Z,57.06
2022-09-06T10:56:02.982Z,57.06
2022-09-06T10:58:22.535Z,57.35
2022-09-06T11:01:11.114Z,56.77
2022-09-06T11:02:11.220Z,56.38
2022-09-06T11:04:15.044Z,56.58
2022-09-06T11:05:44.579Z,56.96
2022-09-06T11:07:19.054Z,56.58
2022-09-06T11:10:23.034Z,56.48
2022-09-06T11:11:23.020Z,56.29
2022-09-06T11:13:28.061Z,56.60
2022-09-06T11:14:28.036Z,56.70
2022-09-06T11:16:32.052Z,56.80
2022-09-06T11:17:32.032Z,56.41
2022-09-06T11:19:36.011Z,56.32
2022-09-06T11:20:36.011Z,56.70
2022-09-06T11:22:40.065Z,56.80
2022-09-06T11:23:40.034Z,56.12
2022-09-06T11:25:44.017Z,55.55
2022-09-06T11:26:44.021Z,55.93
2022-09-06T11:28:48.045Z,55.55
2022-09-06T11:29:48.030Z,55.35
2022-09-06T11:32:52.035Z,55.35
2022-09-06T11:34:44.925Z,55.35
2022-09-06T11:35:44.929Z,55.74
2022-09-06T11:37:48.945Z,55.35
2022-09-06T11:38:48.940Z,55.55
2022-09-06T11:40:52.934Z,55.55
2022-09-06T11:41:52.941Z,55.35
2022-09-06T11:43:57.009Z,56.41
2022-09-06T11:44:56.949Z,56.22
2022-09-06T11:47:01.056Z,56.51
2022-09-06T11:48:00.971Z,56.12
2022-09-06T11:50:04.985Z,56.12
2022-09-06T11:51:04.979Z,56.12
2022-09-06T11:53:08.991Z,55.55
2022-09-06T11:54:08.964Z,55.55
2022-09-06T11:56:13.562Z,56.22
2022-09-06T11:57:13.211Z,55.83
2022-09-06T11:59:17.179Z,55.65
2022-09-06T12:00:17.181Z,55.35
2022-09-06T12:01:17.181Z,55.35
2022-09-06T12:02:17.185Z,56.12
2022-09-06T12:04:17.176Z,56.32
2022-09-06T12:05:17.182Z,56.41
2022-09-06T12:06:17.177Z,56.32
2022-09-06T12:07:17.179Z,56.41
2022-09-06T12:08:17.195Z,56.51
2022-09-06T12:09:17.206Z,56.70
2022-09-06T12:10:17.213Z,56.41
2022-09-06T12:11:17.203Z,56.03
2022-09-06T12:12:17.225Z,56.12
2022-09-06T12:13:17.225Z,56.22
2022-09-06T12:14:17.250Z,56.32
2022-09-06T12:15:17.245Z,56.22
2022-09-06T12:16:17.309Z,56.03
2022-09-06T12:17:17.212Z,56.22
2022-09-06T12:18:17.274Z,56.05
2022-09-06T12:19:17.219Z,56.41
2022-09-06T12:20:17.213Z,56.70
2022-09-06T12:21:17.217Z,56.70
2022-09-06T12:22:17.221Z,56.41
2022-09-06T12:23:17.226Z,56.03
2022-09-06T12:24:17.247Z,56.41
2022-09-06T12:25:17.240Z,56.25
2022-09-06T12:26:17.228Z,56.22
2022-09-06T12:27:17.229Z,56.03
2022-09-06T12:28:17.248Z,56.41
2022-09-06T12:29:17.242Z,56.03
2022-09-06T12:30:17.258Z,56.35
2022-09-06T12:31:18.457Z,56.25
2022-09-06T12:32:17.238Z,56.35
2022-09-06T12:33:17.241Z,56.35
2022-09-06T12:34:17.260Z,56.15
2022-09-06T12:36:17.281Z,56.73
2022-09-06T12:37:17.272Z,56.54
2022-09-06T12:38:17.281Z,56.63
2022-09-06T12:39:17.262Z,56.54
2022-09-06T12:40:17.290Z,56.73
2022-09-06T12:41:17.274Z,56.44
2022-09-06T12:42:17.282Z,56.44
2022-09-06T12:43:17.320Z,56.44
2022-09-06T12:44:17.300Z,56.44
2022-09-06T12:45:17.296Z,56.35
2022-09-06T12:46:17.349Z,56.44
2022-09-06T12:47:17.270Z,55.96
2022-09-06T12:48:17.276Z,55.67
2022-09-06T12:49:17.284Z,56.05
2022-09-06T12:50:17.284Z,56.25
2022-09-06T12:51:17.286Z,56.18
2022-09-06T12:52:17.284Z,56.37
2022-09-06T12:53:20.432Z,56.18
2022-09-06T12:54:17.308Z,56.47
2022-09-06T12:55:17.303Z,56.09
2022-09-06T12:56:17.295Z,56.18
2022-09-06T12:57:17.301Z,55.70
2022-09-06T12:58:17.303Z,55.89
2022-09-06T12:59:17.309Z,55.60
2022-09-06T13:00:17.311Z,55.41
2022-09-06T13:01:17.481Z,54.74
2022-09-06T13:02:17.470Z,55.12
2022-09-06T13:03:17.329Z,54.93
2022-09-06T13:04:17.324Z,55.60
2022-09-06T13:05:17.340Z,55.60
2022-09-06T13:06:17.353Z,55.02
2022-09-06T13:07:17.352Z,55.31
2022-09-06T13:08:17.350Z,54.83
2022-09-06T13:09:17.340Z,55.02
2022-09-06T13:10:17.336Z,54.74
2022-09-06T13:11:17.357Z,54.93
2022-09-06T13:12:17.353Z,55.02
2022-09-06T13:13:17.357Z,55.02
2022-09-06T13:14:17.346Z,54.83
2022-09-06T13:15:17.353Z,54.83
2022-09-06T13:16:17.396Z,55.24
2022-09-06T13:17:17.357Z,55.02
2022-09-06T13:18:17.365Z,55.12
2022-09-06T13:19:17.362Z,55.02
2022-09-06T13:20:17.383Z,55.60
2022-09-06T13:21:17.404Z,55.41
2022-09-06T13:22:17.389Z,55.79
2022-09-06T13:23:17.371Z,55.89
2022-09-06T13:24:17.402Z,55.60
2022-09-06T13:25:20.485Z,55.41
2022-09-06T13:26:17.385Z,55.51
2022-09-06T13:27:17.392Z,55.31
2022-09-06T13:28:17.392Z,55.22
2022-09-06T13:29:17.407Z,55.51
2022-09-06T13:30:17.428Z,55.41
2022-09-06T13:31:17.484Z,55.41
2022-09-06T13:32:17.407Z,56.09
2022-09-06T13:33:17.408Z,56.09
2022-09-06T13:34:17.408Z,56.27
2022-09-06T13:35:17.423Z,56.09
2022-09-06T13:36:17.423Z,56.09
2022-09-06T13:37:17.426Z,55.99
2022-09-06T13:38:17.418Z,56.27
2022-09-06T13:39:17.438Z,56.09
2022-09-06T13:40:17.426Z,56.09
2022-09-06T13:41:17.443Z,55.89
2022-09-06T13:42:17.439Z,55.89
2022-09-06T13:43:17.443Z,55.89
2022-09-06T13:44:17.466Z,56.09
2022-09-06T13:45:17.451Z,55.89
2022-09-06T13:46:17.510Z,56.09
2022-09-06T13:47:17.456Z,55.99
2022-09-06T13:48:28.794Z,56.49
2022-09-06T13:49:17.459Z,55.82
2022-09-06T13:50:17.463Z,55.92
2022-09-06T13:51:17.459Z,55.63
2022-09-06T13:52:17.464Z,55.63
2022-09-06T13:53:17.467Z,56.30
2022-09-06T13:54:17.476Z,56.49
2022-09-06T13:55:17.486Z,56.11
2022-09-06T13:56:17.488Z,56.49
2022-09-06T13:57:22.195Z,56.21